createdAt,value
2024-02-16T00:00:27.508Z,100732.00
2024-02-16T00:05:52.859Z,100725.80
2024-02-16T00:10:56.242Z,100729.00
2024-02-16T00:15:59.571Z,100733.20
2024-02-16T00:21:03.417Z,100732.80
2024-02-16T00:26:08.542Z,100736.80
2024-02-16T00:31:11.808Z,100739.60
2024-02-16T00:36:15.686Z,100738.80
2024-02-16T00:41:21.778Z,100739.60
2024-02-16T00:46:25.208Z,100737.80
2024-02-16T00:51:28.628Z,100734.40
2024-02-16T00:56:35.397Z,100730.40
2024-02-16T01:01:38.674Z,100728.40
2024-02-16T01:06:41.907Z,100727.80
2024-02-16T01:11:45.175Z,100725.20
2024-02-16T01:16:48.423Z,100724.80
2024-02-16T01:21:58.878Z,100729.00
2024-02-16T01:27:02.924Z,100721.60
2024-02-16T01:32:06.332Z,100723.60
2024-02-16T01:37:09.368Z,100715.80
2024-02-16T01:42:14.168Z,100716.20
2024-02-16T01:47:20.061Z,100714.80
2024-02-16T01:52:23.202Z,100716.00
2024-02-16T01:57:26.941Z,100718.20
2024-02-16T02:02:30.096Z,100713.00
2024-02-16T02:07:33.312Z,100714.40
2024-02-16T02:12:36.517Z,100718.60
2024-02-16T02:17:40.589Z,100721.60
2024-02-16T02:22:44.161Z,100719.80
2024-02-16T02:27:47.804Z,100711.80
2024-02-16T02:32:53.688Z,100707.40
2024-02-16T02:37:56.753Z,100707.20
2024-02-16T02:42:59.672Z,100705.20
2024-02-16T02:48:02.841Z,100691.80
2024-02-16T02:53:06.053Z,100693.00
2024-02-16T02:58:09.107Z,100694.20
2024-02-16T03:03:12.295Z,100693.20
2024-02-16T03:08:15.816Z,100691.00
2024-02-16T03:13:20.226Z,100696.00
2024-02-16T03:18:24.111Z,100693.40
2024-02-16T03:23:27.531Z,100700.00
2024-02-16T03:28:30.614Z,100698.60
2024-02-16T03:33:34.063Z,100697.40
2024-02-16T03:38:37.257Z,100697.40
2024-02-16T03:43:40.460Z,100695.20
2024-02-16T03:48:44.136Z,100691.60
2024-02-16T03:53:47.879Z,100690.00
2024-02-16T03:58:51.114Z,100690.00
2024-02-16T04:03:54.362Z,100697.00
2024-02-16T04:08:58.007Z,100696.60
2024-02-16T04:14:01.476Z,100701.40
2024-02-16T04:19:04.842Z,100705.40
2024-02-16T04:24:09.063Z,100702.20
2024-02-16T04:29:13.003Z,100698.60
2024-02-16T04:34:16.175Z,100690.20
2024-02-16T04:39:21.175Z,100684.20
2024-02-16T04:44:24.477Z,100678.00
2024-02-16T04:49:27.643Z,100684.40
2024-02-16T04:54:31.024Z,100684.80
2024-02-16T04:59:34.118Z,100685.60
2024-02-16T05:04:37.232Z,100685.40
2024-02-16T05:09:41.188Z,100691.40
2024-02-16T05:14:44.261Z,100686.40
2024-02-16T05:19:47.594Z,100695.20
2024-02-16T05:24:56.134Z,100693.00
2024-02-16T05:29:59.894Z,100692.00
2024-02-16T05:35:12.661Z,100700.20
2024-02-16T05:40:31.867Z,100699.60
2024-02-16T05:45:36.780Z,100695.40
2024-02-16T05:50:39.982Z,100704.60
2024-02-16T05:55:45.613Z,100712.20
2024-02-16T06:00:49.613Z,100714.80
2024-02-16T06:05:52.732Z,100709.80
2024-02-16T06:10:55.957Z,100712.40
2024-02-16T06:15:59.047Z,100721.00
2024-02-16T06:21:05.260Z,100725.40
2024-02-16T06:26:08.470Z,100730.80
2024-02-16T06:31:12.128Z,100731.00
2024-02-16T06:36:15.203Z,100727.20
2024-02-16T06:41:18.238Z,100727.20
2024-02-16T06:46:21.455Z,100724.80
2024-02-16T06:51:27.930Z,100726.40
2024-02-16T06:56:32.067Z,100726.80
2024-02-16T07:01:35.129Z,100725.00
2024-02-16T07:06:38.299Z,100719.20
2024-02-16T07:11:41.374Z,100716.20
2024-02-16T07:16:44.388Z,100711.20
2024-02-16T07:21:47.522Z,100707.80
2024-02-16T07:26:50.665Z,100711.20
2024-02-16T07:31:53.828Z,100706.60
2024-02-16T07:36:58.011Z,100707.20
2024-02-16T07:42:01.049Z,100712.60
2024-02-16T07:47:04.594Z,100706.80
2024-02-16T07:52:07.662Z,100713.80
2024-02-16T07:57:10.700Z,100712.60
2024-02-16T08:02:16.784Z,100706.40
2024-02-16T08:07:19.961Z,100704.80
2024-02-16T08:12:23.531Z,100704.60
2024-02-16T08:17:26.623Z,100703.00
2024-02-16T08:22:29.810Z,100696.40
2024-02-16T08:27:33.685Z,100690.80
2024-02-16T08:32:36.714Z,100689.00
2024-02-16T08:37:40.304Z,100685.00
2024-02-16T08:42:44.051Z,100684.00
2024-02-16T08:47:50.489Z,100689.80
2024-02-16T08:52:56.565Z,100694.20
2024-02-16T08:57:59.653Z,100695.80
2024-02-16T09:03:07.635Z,100701.80
2024-02-16T09:08:11.207Z,100700.60
2024-02-16T09:13:14.307Z,100698.60
2024-02-16T09:18:17.909Z,100704.80
2024-02-16T09:23:21.087Z,100708.60
2024-02-16T09:28:29.848Z,100703.60
2024-02-16T09:33:36.485Z,100696.20
2024-02-16T09:38:39.818Z,100691.00
2024-02-16T09:43:44.858Z,100693.40
2024-02-16T09:48:54.302Z,100692.80
2024-02-16T09:54:00.246Z,100689.00
2024-02-16T09:59:06.288Z,100676.00
2024-02-16T10:04:11.049Z,100672.00
2024-02-16T10:09:25.128Z,100671.60
2024-02-16T10:14:29.530Z,100659.80
2024-02-16T10:19:43.374Z,100650.60
2024-02-16T10:24:47.564Z,100654.60
2024-02-16T10:29:55.582Z,100654.80
2024-02-16T10:34:59.853Z,100651.00
2024-02-16T10:40:04.386Z,100646.00
2024-02-16T10:45:08.699Z,100641.20
2024-02-16T10:50:13.669Z,100640.00
2024-02-16T10:55:18.223Z,100631.80
2024-02-16T11:00:22.313Z,100622.40
2024-02-16T11:05:48.281Z,100618.40
2024-02-16T11:11:05.054Z,100606.80
2024-02-16T11:16:10.585Z,100599.40
2024-02-16T11:21:16.428Z,100595.80
2024-02-16T11:26:19.454Z,100582.80
2024-02-16T11:31:23.229Z,100576.80
2024-02-16T11:36:29.345Z,100575.80
2024-02-16T11:41:32.435Z,100566.60
2024-02-16T11:46:36.889Z,100557.40
2024-02-16T11:51:40.821Z,100551.60
2024-02-16T11:56:52.921Z,100547.00
2024-02-16T12:01:59.808Z,100547.80
2024-02-16T12:07:05.930Z,100546.40
2024-02-16T12:12:09.537Z,100538.40
2024-02-16T12:17:12.563Z,100538.20
2024-02-16T12:22:22.798Z,100532.80
2024-02-16T12:27:25.865Z,100536.20
2024-02-16T12:32:29.517Z,100526.40
2024-02-16T12:37:32.638Z,100520.80
2024-02-16T12:42:36.080Z,100514.40
2024-02-16T12:47:41.804Z,100506.20
2024-02-16T12:52:54.962Z,100503.40
2024-02-16T12:58:09.475Z,100495.60
2024-02-16T13:03:21.760Z,100490.00
2024-02-16T13:08:29.418Z,100483.40
2024-02-16T13:13:33.287Z,100479.20
2024-02-16T13:18:38.737Z,100475.20
2024-02-16T13:23:41.956Z,100460.60
2024-02-16T13:28:45.105Z,100458.80
2024-02-16T13:33:48.244Z,100457.60
2024-02-16T13:38:51.500Z,100454.20
2024-02-16T13:43:54.773Z,100452.60
2024-02-16T13:48:58.848Z,100448.20
2024-02-16T13:54:02.528Z,100440.00
2024-02-16T13:59:09.093Z,100439.60
2024-02-16T14:04:15.958Z,100435.40
2024-02-16T14:09:24.333Z,100427.40
2024-02-16T14:14:37.994Z,100425.40
2024-02-16T14:19:42.884Z,100420.20
2024-02-16T14:24:46.234Z,100421.60
2024-02-16T14:29:49.263Z,100433.80
2024-02-16T14:34:53.030Z,100432.80
2024-02-16T14:39:59.916Z,100430.60
2024-02-16T14:45:06.979Z,100438.40
2024-02-16T14:50:22.643Z,100433.80
2024-02-16T14:55:28.109Z,100429.40
2024-02-16T15:00:32.448Z,100423.80
2024-02-16T15:05:36.473Z,100422.00
2024-02-16T15:10:41.893Z,100417.80
2024-02-16T15:15:45.504Z,100413.00
2024-02-16T15:20:51.271Z,100407.20
2024-02-16T15:25:57.917Z,100413.60
2024-02-16T15:31:12.829Z,100409.00
2024-02-16T15:36:16.488Z,100404.60
2024-02-16T15:41:19.535Z,100395.00
2024-02-16T15:46:22.537Z,100398.80
2024-02-16T15:51:25.585Z,100401.60
2024-02-16T15:56:28.997Z,100400.20
2024-02-16T16:01:38.660Z,100404.60
2024-02-16T16:06:43.429Z,100396.60
2024-02-16T16:11:47.202Z,100404.00
2024-02-16T16:16:55.054Z,100398.20
2024-02-16T16:22:02.126Z,100391.00
2024-02-16T16:27:10.031Z,100399.80
2024-02-16T16:32:14.622Z,100407.40
2024-02-16T16:37:17.669Z,100414.00
2024-02-16T16:42:20.805Z,100406.80
2024-02-16T16:47:24.573Z,100415.40
2024-02-16T16:52:27.752Z,100414.20
2024-02-16T16:57:30.890Z,100417.00
2024-02-16T17:02:34.811Z,100414.80
2024-02-16T17:07:37.839Z,100415.60
2024-02-16T17:12:41.922Z,100415.80
2024-02-16T17:17:49.970Z,100418.20
2024-02-16T17:22:54.822Z,100411.20
2024-02-16T17:27:58.332Z,100410.20
2024-02-16T17:33:02.951Z,100417.60
2024-02-16T17:38:06.037Z,100420.20
2024-02-16T17:43:09.203Z,100415.00
2024-02-16T17:48:12.721Z,100408.40
2024-02-16T17:53:16.031Z,100410.20
2024-02-16T17:58:19.328Z,100408.60
2024-02-16T18:03:22.521Z,100405.20
2024-02-16T18:08:27.871Z,100400.00
2024-02-16T18:13:32.440Z,100398.80
2024-02-16T18:18:35.515Z,100394.80
2024-02-16T18:23:42.968Z,100402.00
2024-02-16T18:28:46.383Z,100387.00
2024-02-16T18:33:49.878Z,100392.60
2024-02-16T18:38:53.189Z,100388.00
2024-02-16T18:43:56.122Z,100387.80
2024-02-16T18:48:59.666Z,100387.40
2024-02-16T18:54:03.961Z,100377.80
2024-02-16T18:59:09.441Z,100382.40
2024-02-16T19:04:12.571Z,100373.80
2024-02-16T19:09:15.625Z,100376.20
2024-02-16T19:14:19.786Z,100386.60
2024-02-16T19:19:24.090Z,100388.00
2024-02-16T19:24:33.492Z,100378.60
2024-02-16T19:29:43.206Z,100368.60
2024-02-16T19:34:46.294Z,100368.20
2024-02-16T19:39:49.385Z,100360.20
2024-02-16T19:44:52.510Z,100361.20
2024-02-16T19:49:55.550Z,100349.80
2024-02-16T19:54:59.984Z,100341.40
2024-02-16T20:00:04.926Z,100344.60
2024-02-16T20:05:08.541Z,100338.60
2024-02-16T20:10:12.061Z,100341.60
2024-02-16T20:15:16.060Z,100343.00
2024-02-16T20:20:23.446Z,100337.20
2024-02-16T20:25:27.448Z,100330.20
2024-02-16T20:30:31.449Z,100324.80
2024-02-16T20:35:34.592Z,100323.00
2024-02-16T20:40:37.747Z,100310.80
2024-02-16T20:45:40.921Z,100310.20
2024-02-16T20:50:43.978Z,100310.60
2024-02-16T20:55:47.159Z,100305.60
2024-02-16T21:00:50.276Z,100301.40
2024-02-16T21:05:53.414Z,100299.00
2024-02-16T21:10:56.831Z,100299.60
2024-02-16T21:15:59.789Z,100303.40
2024-02-16T21:21:04.615Z,100307.00
2024-02-16T21:26:07.539Z,100308.40
2024-02-16T21:31:10.462Z,100303.80
2024-02-16T21:36:16.027Z,100301.00
2024-02-16T21:41:19.199Z,100296.40
2024-02-16T21:46:30.868Z,100289.80
2024-02-16T21:51:36.644Z,100286.20
2024-02-16T21:56:39.760Z,100286.60
2024-02-16T22:01:42.771Z,100278.40
2024-02-16T22:06:46.646Z,100272.60
2024-02-16T22:11:50.093Z,100274.80
2024-02-16T22:16:53.135Z,100274.00
2024-02-16T22:21:58.197Z,100272.40
2024-02-16T22:27:01.464Z,100268.40
2024-02-16T22:32:12.178Z,100270.20
2024-02-16T22:37:20.317Z,100273.60
2024-02-16T22:42:23.426Z,100274.00
2024-02-16T22:47:26.412Z,100273.60
2024-02-16T22:52:29.536Z,100276.00
2024-02-16T22:57:32.690Z,100281.00
2024-02-16T23:02:36.344Z,100275.00
2024-02-16T23:07:39.253Z,100281.60
2024-02-16T23:12:43.556Z,100268.60
2024-02-16T23:17:48.161Z,100271.20
2024-02-16T23:22:58.789Z,100273.80
2024-02-16T23:28:02.082Z,100273.20
2024-02-16T23:33:05.969Z,100265.20
2024-02-16T23:38:09.201Z,100265.60
2024-02-16T23:43:13.063Z,100266.20
2024-02-16T23:48:16.271Z,100270.00
2024-02-16T23:53:19.225Z,100275.60
2024-02-16T23:58:22.392Z,100274.40
